Seafalcon — 9HA2814 — position and weather

sailwx.info

Track history (hours):
 
Tides and Currents Weather Stations Pressure Air Temp Water Temp Dewpoint Dewpoint Depression Visibility Wind Speed Wind Dir Waves Ship Positions

Seafalcon

Last reported at 2015-Feb-26 14:22 UTC. Time now 2015-Mar-01 20:54 UTC.
Position N 35°58' W 005°34'.

Length 250 m; draft 8.4 m.

Type: Tanker. MMSI: 256078000.

Date/timePositionNaut miles runAvg speedWind from/ knotsBaromVisibWave heightAir tempDewpointWater temp
2015-Feb-26 14:22N 35°58' W 005°34'6 7.7
2015-Feb-26 13:33N 35°60' W 005°26'7 5.7
2015-Feb-26 12:24N 36°06' W 005°24'0 0.1
2015-Feb-26 11:33N 36°06' W 005°24'0 0.1
2015-Feb-26 10:30N 36°06' W 005°24'0 0.1
2015-Feb-26 09:33N 36°06' W 005°24'0 0.1
2015-Feb-26 08:33N 36°06' W 005°24'0 0.1
2015-Feb-26 07:33N 36°06' W 005°24'0 0.1
2015-Feb-26 06:33N 36°06' W 005°24'0 0.0
2015-Feb-26 05:33N 36°06' W 005°24'0 0.0
2015-Feb-26 04:30N 36°06' W 005°24'0 0.0
2015-Feb-26 03:33N 36°06' W 005°24'0 0.0
2015-Feb-26 02:33N 36°06' W 005°24'0 0.2
2015-Feb-26 01:33N 36°06' W 005°24'0 0.0
2015-Feb-25 23:15N 36°06' W 005°24'0 0.1
2015-Feb-25 22:27N 36°06' W 005°24'1 1.3
2015-Feb-25 21:34N 36°06' W 005°23'4 4.4
2015-Feb-25 20:34N 36°04' W 005°18'2 2.2
2015-Feb-25 19:34N 36°03' W 005°15'2 2.4
2015-Feb-25 18:34N 36°04' W 005°18'4 0.2
2015-Feb-24 20:34N 36°05' W 005°13'9 8.6
2015-Feb-24 19:33N 36°09' W 005°23'1 0.4
2015-Feb-24 18:03N 36°09' W 005°22'0 0.1
2015-Feb-24 17:33N 36°09' W 005°22'0 0.0
2015-Feb-24 16:33N 36°09' W 005°22'0 0.1
2015-Feb-24 15:33N 36°09' W 005°22'0 0.0
2015-Feb-24 14:03N 36°09' W 005°22'0 0.0
2015-Feb-24 13:33N 36°09' W 005°22'0 0.0
2015-Feb-24 10:21N 36°09' W 005°22'0 0.0
2015-Feb-24 09:33N 36°09' W 005°22'0 0.1
2015-Feb-24 08:24N 36°09' W 005°22'3 3.3
2015-Feb-24 07:33N 36°06' W 005°22'7 7.3
2015-Feb-24 06:34N 36°05' W 005°13'4 1.9
2015-Feb-24 04:33N 36°03' W 005°09'3 2.9
2015-Feb-24 03:25N 36°05' W 005°11'3 3.9
2015-Feb-24 02:33N 36°09' W 005°11'2 0.9
2015-Feb-24 00:32N 36°07' W 005°11'6 5.9
2015-Feb-23 23:33N 36°01' W 005°13'1515.0
2015-Feb-23 22:33N 35°57' W 005°31'  
2015-Feb-20 17:33N 35°59' W 005°31'9 8.7
2015-Feb-20 16:33N 36°01' W 005°20'  
2015-Feb-17 13:31N 36°52' E 013°38'1212.9
2015-Feb-17 12:33N 36°49' E 013°53'1312.9
2015-Feb-17 11:33N 36°45' E 014°09'1313.1
2015-Feb-17 10:33N 36°41' E 014°24'1312.8
2015-Feb-17 09:33N 36°38' E 014°40'1512.8
2015-Feb-17 08:24N 36°36' E 014°58'  
Track history (hours):
 
Tides and Currents Weather Stations Pressure Air Temp Water Temp Dewpoint Dewpoint Depression Visibility Wind Speed Wind Dir Waves Ship Positions

Seafalcon

Last reported at 2015-Feb-26 14:22 UTC. Time now 2015-Mar-01 20:54 UTC.
Position N 35°58' W 005°34'.

Length 250 m; draft 8.4 m.

Type: Tanker. MMSI: 256078000.

Date/timePositionNaut miles runAvg speedWind from/ knotsBaromVisibWave heightAir tempDewpointWater temp
2015-Feb-26 14:22N 35°58' W 005°34'6 7.7
2015-Feb-26 13:33N 35°60' W 005°26'7 5.7
2015-Feb-26 12:24N 36°06' W 005°24'0 0.1
2015-Feb-26 11:33N 36°06' W 005°24'0 0.1
2015-Feb-26 10:30N 36°06' W 005°24'0 0.1
2015-Feb-26 09:33N 36°06' W 005°24'0 0.1
2015-Feb-26 08:33N 36°06' W 005°24'0 0.1
2015-Feb-26 07:33N 36°06' W 005°24'0 0.1
2015-Feb-26 06:33N 36°06' W 005°24'0 0.0
2015-Feb-26 05:33N 36°06' W 005°24'0 0.0
2015-Feb-26 04:30N 36°06' W 005°24'0 0.0
2015-Feb-26 03:33N 36°06' W 005°24'0 0.0
2015-Feb-26 02:33N 36°06' W 005°24'0 0.2
2015-Feb-26 01:33N 36°06' W 005°24'0 0.0
2015-Feb-25 23:15N 36°06' W 005°24'0 0.1
2015-Feb-25 22:27N 36°06' W 005°24'1 1.3
2015-Feb-25 21:34N 36°06' W 005°23'4 4.4
2015-Feb-25 20:34N 36°04' W 005°18'2 2.2
2015-Feb-25 19:34N 36°03' W 005°15'2 2.4
2015-Feb-25 18:34N 36°04' W 005°18'4 0.2
2015-Feb-24 20:34N 36°05' W 005°13'9 8.6
2015-Feb-24 19:33N 36°09' W 005°23'1 0.4
2015-Feb-24 18:03N 36°09' W 005°22'0 0.1
2015-Feb-24 17:33N 36°09' W 005°22'0 0.0
2015-Feb-24 16:33N 36°09' W 005°22'0 0.1
2015-Feb-24 15:33N 36°09' W 005°22'0 0.0
2015-Feb-24 14:03N 36°09' W 005°22'0 0.0
2015-Feb-24 13:33N 36°09' W 005°22'0 0.0
2015-Feb-24 10:21N 36°09' W 005°22'0 0.0
2015-Feb-24 09:33N 36°09' W 005°22'0 0.1
2015-Feb-24 08:24N 36°09' W 005°22'3 3.3
2015-Feb-24 07:33N 36°06' W 005°22'7 7.3
2015-Feb-24 06:34N 36°05' W 005°13'4 1.9
2015-Feb-24 04:33N 36°03' W 005°09'3 2.9
2015-Feb-24 03:25N 36°05' W 005°11'3 3.9
2015-Feb-24 02:33N 36°09' W 005°11'2 0.9
2015-Feb-24 00:32N 36°07' W 005°11'6 5.9
2015-Feb-23 23:33N 36°01' W 005°13'1515.0
2015-Feb-23 22:33N 35°57' W 005°31'  
2015-Feb-20 17:33N 35°59' W 005°31'9 8.7
2015-Feb-20 16:33N 36°01' W 005°20'  
2015-Feb-17 13:31N 36°52' E 013°38'1212.9
2015-Feb-17 12:33N 36°49' E 013°53'1312.9
2015-Feb-17 11:33N 36°45' E 014°09'1313.1
2015-Feb-17 10:33N 36°41' E 014°24'1312.8
2015-Feb-17 09:33N 36°38' E 014°40'1512.8
2015-Feb-17 08:24N 36°36' E 014°58'  

Dump ship's entire track history